sensor_id;sensor_type;location;lat;lon;timestamp;pressure;altitude;pressure_sealevel;temperature;humidity
85473;BME280;75874;41.386;22.136;2024-03-06T00:02:24;95470.59;;;9.36;76.62
85473;BME280;75874;41.386;22.136;2024-03-06T00:04:50;95469.19;;;9.29;76.35
85473;BME280;75874;41.386;22.136;2024-03-06T00:07:15;95485.47;;;9.32;76.13
85473;BME280;75874;41.386;22.136;2024-03-06T00:09:41;95462.94;;;9.18;75.47
85473;BME280;75874;41.386;22.136;2024-03-06T00:12:07;95482.59;;;9.17;76.15
85473;BME280;75874;41.386;22.136;2024-03-06T00:14:33;95476.06;;;9.25;76.36
85473;BME280;75874;41.386;22.136;2024-03-06T00:16:58;95481.06;;;9.21;76.47
85473;BME280;75874;41.386;22.136;2024-03-06T00:19:24;95480.81;;;9.23;75.80
85473;BME280;75874;41.386;22.136;2024-03-06T00:21:50;95481.44;;;9.30;75.81
85473;BME280;75874;41.386;22.136;2024-03-06T00:24:16;95483.56;;;9.28;75.75
85473;BME280;75874;41.386;22.136;2024-03-06T00:26:43;95475.88;;;9.31;75.21
85473;BME280;75874;41.386;22.136;2024-03-06T00:29:10;95450.88;;;9.11;75.63
85473;BME280;75874;41.386;22.136;2024-03-06T00:31:36;95481.75;;;9.33;75.37
85473;BME280;75874;41.386;22.136;2024-03-06T00:34:01;95475.25;;;9.24;74.83
85473;BME280;75874;41.386;22.136;2024-03-06T00:36:27;95449.13;;;9.00;76.09
85473;BME280;75874;41.386;22.136;2024-03-06T00:38:53;95462.03;;;9.08;75.48
85473;BME280;75874;41.386;22.136;2024-03-06T00:41:18;95469.44;;;9.06;75.62
85473;BME280;75874;41.386;22.136;2024-03-06T00:43:44;95478.00;;;9.13;74.90
85473;BME280;75874;41.386;22.136;2024-03-06T00:46:11;95480.44;;;9.14;75.28
85473;BME280;75874;41.386;22.136;2024-03-06T00:48:36;95482.75;;;9.27;75.35
85473;BME280;75874;41.386;22.136;2024-03-06T00:51:05;95478.41;;;9.21;74.31
85473;BME280;75874;41.386;22.136;2024-03-06T00:53:32;95484.59;;;9.27;74.60
85473;BME280;75874;41.386;22.136;2024-03-06T00:55:57;95480.31;;;9.26;73.69
85473;BME280;75874;41.386;22.136;2024-03-06T00:58:23;95495.78;;;9.29;73.73
85473;BME280;75874;41.386;22.136;2024-03-06T01:00:49;95491.97;;;9.20;74.89
85473;BME280;75874;41.386;22.136;2024-03-06T01:03:14;95487.56;;;9.09;75.38
85473;BME280;75874;41.386;22.136;2024-03-06T01:05:40;95485.81;;;8.98;75.47
85473;BME280;75874;41.386;22.136;2024-03-06T01:08:05;95467.41;;;8.75;75.02
85473;BME280;75874;41.386;22.136;2024-03-06T01:10:31;95490.31;;;8.97;75.50
85473;BME280;75874;41.386;22.136;2024-03-06T01:12:57;95496.84;;;8.90;75.32
85473;BME280;75874;41.386;22.136;2024-03-06T01:15:22;95490.81;;;8.78;75.86
85473;BME280;75874;41.386;22.136;2024-03-06T01:17:48;95502.81;;;8.80;75.04
85473;BME280;75874;41.386;22.136;2024-03-06T01:20:15;95506.22;;;8.76;75.89
85473;BME280;75874;41.386;22.136;2024-03-06T01:22:40;95511.81;;;8.96;74.33
85473;BME280;75874;41.386;22.136;2024-03-06T01:25:06;95493.13;;;8.91;74.69
85473;BME280;75874;41.386;22.136;2024-03-06T01:27:32;95518.78;;;8.97;74.49
85473;BME280;75874;41.386;22.136;2024-03-06T01:29:58;95510.47;;;8.93;74.57
85473;BME280;75874;41.386;22.136;2024-03-06T01:32:23;95496.69;;;8.80;73.59
85473;BME280;75874;41.386;22.136;2024-03-06T01:34:49;95516.56;;;8.94;73.87
85473;BME280;75874;41.386;22.136;2024-03-06T01:37:15;95496.06;;;8.73;74.40
85473;BME280;75874;41.386;22.136;2024-03-06T01:39:40;95511.34;;;8.66;74.80
85473;BME280;75874;41.386;22.136;2024-03-06T01:42:06;95521.13;;;8.60;75.57
85473;BME280;75874;41.386;22.136;2024-03-06T01:44:32;95521.94;;;8.61;74.76
85473;BME280;75874;41.386;22.136;2024-03-06T01:46:57;95499.44;;;8.52;74.78
85473;BME280;75874;41.386;22.136;2024-03-06T01:49:23;95522.97;;;8.76;73.97
85473;BME280;75874;41.386;22.136;2024-03-06T01:51:53;95524.91;;;8.81;73.63
85473;BME280;75874;41.386;22.136;2024-03-06T01:54:19;95518.19;;;8.78;73.81
85473;BME280;75874;41.386;22.136;2024-03-06T01:56:47;95527.06;;;8.84;74.01
85473;BME280;75874;41.386;22.136;2024-03-06T01:59:20;95507.88;;;8.82;72.98
85473;BME280;75874;41.386;22.136;2024-03-06T02:01:46;95518.44;;;8.77;72.93
85473;BME280;75874;41.386;22.136;2024-03-06T02:04:12;95524.31;;;8.79;73.86
85473;BME280;75874;41.386;22.136;2024-03-06T02:06:39;95505.16;;;8.77;72.85
85473;BME280;75874;41.386;22.136;2024-03-06T02:09:05;95546.31;;;8.91;73.65
85473;BME280;75874;41.386;22.136;2024-03-06T02:11:32;95547.19;;;8.80;74.45
85473;BME280;75874;41.386;22.136;2024-03-06T02:13:59;95550.91;;;8.79;74.08
85473;BME280;75874;41.386;22.136;2024-03-06T02:16:24;95552.47;;;8.75;73.99
85473;BME280;75874;41.386;22.136;2024-03-06T02:18:54;95540.75;;;8.76;73.96
85473;BME280;75874;41.386;22.136;2024-03-06T02:21:21;95572.34;;;8.89;73.59
85473;BME280;75874;41.386;22.136;2024-03-06T02:23:47;95564.44;;;8.94;72.32
85473;BME280;75874;41.386;22.136;2024-03-06T02:26:14;95496.06;;;8.40;72.43
85473;BME280;75874;41.386;22.136;2024-03-06T02:28:46;95575.50;;;8.86;73.23
85473;BME280;75874;41.386;22.136;2024-03-06T02:31:13;95544.69;;;8.57;73.29
85473;BME280;75874;41.386;22.136;2024-03-06T02:33:39;95546.31;;;8.58;73.31
85473;BME280;75874;41.386;22.136;2024-03-06T02:36:05;95565.66;;;8.70;72.74
85473;BME280;75874;41.386;22.136;2024-03-06T02:38:31;95554.13;;;8.48;73.77
85473;BME280;75874;41.386;22.136;2024-03-06T02:40:57;95581.19;;;8.61;73.85
85473;BME280;75874;41.386;22.136;2024-03-06T02:43:22;95577.84;;;8.38;73.43
85473;BME280;75874;41.386;22.136;2024-03-06T02:45:48;95578.59;;;8.50;73.04
85473;BME280;75874;41.386;22.136;2024-03-06T02:48:14;95586.59;;;8.66;73.49
85473;BME280;75874;41.386;22.136;2024-03-06T02:50:39;95572.09;;;8.57;72.75
85473;BME280;75874;41.386;22.136;2024-03-06T02:53:05;95558.00;;;8.57;72.30
85473;BME280;75874;41.386;22.136;2024-03-06T02:55:30;95549.13;;;8.51;72.26
85473;BME280;75874;41.386;22.136;2024-03-06T02:57:56;95578.22;;;8.74;72.10
85473;BME280;75874;41.386;22.136;2024-03-06T03:00:22;95584.91;;;8.77;72.49
85473;BME280;75874;41.386;22.136;2024-03-06T03:02:48;95554.28;;;8.58;71.91
85473;BME280;75874;41.386;22.136;2024-03-06T03:05:14;95588.69;;;8.81;71.45
85473;BME280;75874;41.386;22.136;2024-03-06T03:07:39;95571.59;;;8.60;71.79
85473;BME280;75874;41.386;22.136;2024-03-06T03:10:05;95561.59;;;8.51;71.79
85473;BME280;75874;41.386;22.136;2024-03-06T03:12:31;95597.78;;;8.68;71.43
85473;BME280;75874;41.386;22.136;2024-03-06T03:14:57;95574.75;;;8.57;72.37
85473;BME280;75874;41.386;22.136;2024-03-06T03:17:23;95597.28;;;8.55;73.23
85473;BME280;75874;41.386;22.136;2024-03-06T03:19:48;95598.84;;;8.39;74.23
85473;BME280;75874;41.386;22.136;2024-03-06T03:22:14;95584.72;;;8.11;74.89
85473;BME280;75874;41.386;22.136;2024-03-06T03:24:41;95571.66;;;7.93;74.69
85473;BME280;75874;41.386;22.136;2024-03-06T03:27:07;95587.09;;;7.96;75.04
85473;BME280;75874;41.386;22.136;2024-03-06T03:29:33;95591.28;;;7.92;75.04
85473;BME280;75874;41.386;22.136;2024-03-06T03:31:59;95589.41;;;7.92;74.98
85473;BME280;75874;41.386;22.136;2024-03-06T03:34:24;95596.44;;;7.98;75.48
85473;BME280;75874;41.386;22.136;2024-03-06T03:36:50;95590.81;;;7.95;74.04
85473;BME280;75874;41.386;22.136;2024-03-06T03:39:16;95601.34;;;8.18;73.37
85473;BME280;75874;41.386;22.136;2024-03-06T03:41:45;95603.75;;;8.31;72.97
85473;BME280;75874;41.386;22.136;2024-03-06T03:44:16;95579.59;;;8.04;74.15
85473;BME280;75874;41.386;22.136;2024-03-06T03:46:42;95600.06;;;8.20;74.63
85473;BME280;75874;41.386;22.136;2024-03-06T03:49:08;95610.50;;;8.10;75.19
85473;BME280;75874;41.386;22.136;2024-03-06T03:51:35;95612.59;;;7.97;76.08
85473;BME280;75874;41.386;22.136;2024-03-06T03:54:02;95578.88;;;7.69;75.80
85473;BME280;75874;41.386;22.136;2024-03-06T03:56:28;95612.06;;;7.83;75.38
85473;BME280;75874;41.386;22.136;2024-03-06T03:58:53;95610.94;;;7.79;75.92
85473;BME280;75874;41.386;22.136;2024-03-06T04:01:19;95597.34;;;7.52;75.82
85473;BME280;75874;41.386;22.136;2024-03-06T04:03:44;95610.25;;;7.60;76.29
85473;BME280;75874;41.386;22.136;2024-03-06T04:06:10;95601.28;;;7.50;76.56
85473;BME280;75874;41.386;22.136;2024-03-06T04:08:36;95626.19;;;7.60;76.09
85473;BME280;75874;41.386;22.136;2024-03-06T04:11:04;95620.56;;;7.57;75.96
85473;BME280;75874;41.386;22.136;2024-03-06T04:13:48;95621.81;;;7.66;75.88
85473;BME280;75874;41.386;22.136;2024-03-06T04:16:18;95618.69;;;7.57;75.80
85473;BME280;75874;41.386;22.136;2024-03-06T04:18:44;95625.03;;;7.68;76.12
85473;BME280;75874;41.386;22.136;2024-03-06T04:21:10;95632.84;;;7.74;75.72
85473;BME280;75874;41.386;22.136;2024-03-06T04:23:36;95626.53;;;7.75;74.74
85473;BME280;75874;41.386;22.136;2024-03-06T04:26:03;95631.69;;;7.82;75.39
85473;BME280;75874;41.386;22.136;2024-03-06T04:28:29;95629.75;;;7.77;75.75
85473;BME280;75874;41.386;22.136;2024-03-06T04:30:55;95640.91;;;7.79;74.70
85473;BME280;75874;41.386;22.136;2024-03-06T04:33:21;95640.44;;;7.82;74.71
85473;BME280;75874;41.386;22.136;2024-03-06T04:35:47;95634.78;;;7.90;75.02
85473;BME280;75874;41.386;22.136;2024-03-06T04:38:13;95632.19;;;7.79;74.55
85473;BME280;75874;41.386;22.136;2024-03-06T04:41:08;95643.44;;;7.86;75.19
85473;BME280;75874;41.386;22.136;2024-03-06T04:47:15;95641.56;;;7.98;74.07
85473;BME280;75874;41.386;22.136;2024-03-06T04:49:41;95627.88;;;7.78;74.79
85473;BME280;75874;41.386;22.136;2024-03-06T04:52:08;95642.88;;;7.84;75.24
85473;BME280;75874;41.386;22.136;2024-03-06T04:54:34;95647.81;;;7.92;74.53
85473;BME280;75874;41.386;22.136;2024-03-06T04:57:00;95640.44;;;7.94;73.43
85473;BME280;75874;41.386;22.136;2024-03-06T04:59:26;95649.41;;;8.05;73.12
85473;BME280;75874;41.386;22.136;2024-03-06T05:01:52;95653.53;;;8.12;72.92
85473;BME280;75874;41.386;22.136;2024-03-06T05:04:18;95662.91;;;8.15;73.60
85473;BME280;75874;41.386;22.136;2024-03-06T05:06:43;95649.38;;;8.16;72.39
85473;BME280;75874;41.386;22.136;2024-03-06T05:09:09;95663.00;;;8.20;73.37
85473;BME280;75874;41.386;22.136;2024-03-06T05:11:37;95654.94;;;8.15;73.12
85473;BME280;75874;41.386;22.136;2024-03-06T05:14:04;95673.53;;;8.26;72.42
85473;BME280;75874;41.386;22.136;2024-03-06T05:16:29;95665.78;;;8.13;74.16
85473;BME280;75874;41.386;22.136;2024-03-06T05:18:55;95677.13;;;8.09;74.21
85473;BME280;75874;41.386;22.136;2024-03-06T05:21:21;95675.75;;;7.95;75.51
85473;BME280;75874;41.386;22.136;2024-03-06T05:23:49;95669.19;;;7.85;75.07
85473;BME280;75874;41.386;22.136;2024-03-06T05:26:15;95678.59;;;8.16;74.44
85473;BME280;75874;41.386;22.136;2024-03-06T05:28:41;95678.59;;;8.16;73.59
85473;BME280;75874;41.386;22.136;2024-03-06T05:31:17;95684.38;;;8.13;74.51
85473;BME280;75874;41.386;22.136;2024-03-06T05:33:48;95680.34;;;8.11;73.35
85473;BME280;75874;41.386;22.136;2024-03-06T05:36:15;95682.31;;;8.15;73.13
85473;BME280;75874;41.386;22.136;2024-03-06T05:38:44;95686.91;;;8.31;73.46
85473;BME280;75874;41.386;22.136;2024-03-06T05:41:10;95694.72;;;8.38;72.20
85473;BME280;75874;41.386;22.136;2024-03-06T05:43:36;95702.34;;;8.46;72.20
85473;BME280;75874;41.386;22.136;2024-03-06T05:46:02;95692.28;;;8.48;73.31
85473;BME280;75874;41.386;22.136;2024-03-06T05:48:28;95702.09;;;8.47;74.61
85473;BME280;75874;41.386;22.136;2024-03-06T05:50:53;95703.16;;;8.46;74.09
85473;BME280;75874;41.386;22.136;2024-03-06T05:53:19;95697.13;;;8.51;73.32
85473;BME280;75874;41.386;22.136;2024-03-06T05:55:45;95699.28;;;8.65;73.69
85473;BME280;75874;41.386;22.136;2024-03-06T05:58:10;95692.44;;;8.69;74.59
85473;BME280;75874;41.386;22.136;2024-03-06T06:01:07;95697.06;;;8.90;72.42
85473;BME280;75874;41.386;22.136;2024-03-06T06:03:34;95703.72;;;9.04;73.22
85473;BME280;75874;41.386;22.136;2024-03-06T06:05:59;95702.75;;;9.10;72.51
85473;BME280;75874;41.386;22.136;2024-03-06T06:08:25;95703.56;;;9.27;72.89
85473;BME280;75874;41.386;22.136;2024-03-06T06:10:50;95695.50;;;9.39;72.37
85473;BME280;75874;41.386;22.136;2024-03-06T06:13:20;95666.88;;;9.29;71.86
85473;BME280;75874;41.386;22.136;2024-03-06T06:15:46;95697.66;;;9.59;71.97
85473;BME280;75874;41.386;22.136;2024-03-06T06:18:12;95701.59;;;9.73;71.48
85473;BME280;75874;41.386;22.136;2024-03-06T06:20:38;95696.59;;;9.76;71.44
85473;BME280;75874;41.386;22.136;2024-03-06T06:23:04;95698.13;;;9.89;71.59
85473;BME280;75874;41.386;22.136;2024-03-06T06:25:30;95693.69;;;9.94;72.19
85473;BME280;75874;41.386;22.136;2024-03-06T06:27:55;95711.19;;;10.07;73.83
85473;BME280;75874;41.386;22.136;2024-03-06T06:30:21;95706.75;;;10.12;73.63
85473;BME280;75874;41.386;22.136;2024-03-06T06:32:47;95700.59;;;10.12;73.92
85473;BME280;75874;41.386;22.136;2024-03-06T06:35:12;95711.31;;;10.17;74.36
85473;BME280;75874;41.386;22.136;2024-03-06T06:37:51;95720.13;;;10.17;74.87
85473;BME280;75874;41.386;22.136;2024-03-06T06:40:17;95729.00;;;10.23;76.95
85473;BME280;75874;41.386;22.136;2024-03-06T06:42:47;95721.50;;;10.20;77.17
85473;BME280;75874;41.386;22.136;2024-03-06T06:45:16;95720.75;;;10.24;76.73
85473;BME280;75874;41.386;22.136;2024-03-06T06:47:42;95718.03;;;10.19;75.11
85473;BME280;75874;41.386;22.136;2024-03-06T06:50:07;95716.47;;;10.23;76.60
85473;BME280;75874;41.386;22.136;2024-03-06T06:52:35;95704.06;;;10.12;75.45
85473;BME280;75874;41.386;22.136;2024-03-06T06:55:00;95722.69;;;10.29;77.03
85473;BME280;75874;41.386;22.136;2024-03-06T06:57:26;95724.91;;;10.37;78.00
85473;BME280;75874;41.386;22.136;2024-03-06T06:59:52;95706.22;;;10.32;75.65
85473;BME280;75874;41.386;22.136;2024-03-06T07:02:18;95726.97;;;10.51;75.04
85473;BME280;75874;41.386;22.136;2024-03-06T07:04:43;95731.31;;;10.57;72.39
85473;BME280;75874;41.386;22.136;2024-03-06T07:07:09;95726.09;;;10.67;73.65
85473;BME280;75874;41.386;22.136;2024-03-06T07:09:35;95733.16;;;10.78;74.96
85473;BME280;75874;41.386;22.136;2024-03-06T07:12:01;95731.22;;;10.95;75.95
85473;BME280;75874;41.386;22.136;2024-03-06T07:14:28;95732.38;;;11.05;74.77
85473;BME280;75874;41.386;22.136;2024-03-06T07:16:54;95716.56;;;10.98;77.31
85473;BME280;75874;41.386;22.136;2024-03-06T07:19:19;95740.28;;;11.21;75.62
85473;BME280;75874;41.386;22.136;2024-03-06T07:21:45;95741.06;;;11.17;72.58
85473;BME280;75874;41.386;22.136;2024-03-06T07:24:11;95742.44;;;11.24;72.26
85473;BME280;75874;41.386;22.136;2024-03-06T07:26:36;95736.47;;;11.39;73.42
85473;BME280;75874;41.386;22.136;2024-03-06T07:29:02;95734.38;;;11.46;74.58
85473;BME280;75874;41.386;22.136;2024-03-06T07:31:28;95731.28;;;11.59;71.87
85473;BME280;75874;41.386;22.136;2024-03-06T07:33:54;95733.78;;;11.65;74.31
85473;BME280;75874;41.386;22.136;2024-03-06T07:36:20;95731.00;;;11.87;73.79
85473;BME280;75874;41.386;22.136;2024-03-06T07:38:46;95739.53;;;11.84;72.53
85473;BME280;75874;41.386;22.136;2024-03-06T07:41:12;95731.50;;;11.84;73.32
85473;BME280;75874;41.386;22.136;2024-03-06T07:44:05;95737.16;;;11.87;70.52
85473;BME280;75874;41.386;22.136;2024-03-06T07:46:31;95729.41;;;11.86;70.97
85473;BME280;75874;41.386;22.136;2024-03-06T07:48:56;95726.47;;;11.87;74.19
85473;BME280;75874;41.386;22.136;2024-03-06T07:51:48;95734.63;;;12.07;73.27
85473;BME280;75874;41.386;22.136;2024-03-06T07:54:14;95735.66;;;12.01;72.58
85473;BME280;75874;41.386;22.136;2024-03-06T07:56:40;95734.03;;;12.00;71.29
85473;BME280;75874;41.386;22.136;2024-03-06T07:59:05;95723.63;;;12.04;73.09
85473;BME280;75874;41.386;22.136;2024-03-06T08:01:31;95741.91;;;12.17;70.86
85473;BME280;75874;41.386;22.136;2024-03-06T08:03:58;95740.59;;;12.24;71.54
85473;BME280;75874;41.386;22.136;2024-03-06T08:06:54;95742.81;;;12.37;72.62
85473;BME280;75874;41.386;22.136;2024-03-06T08:09:20;95737.84;;;12.66;70.48
85473;BME280;75874;41.386;22.136;2024-03-06T08:11:46;95749.16;;;12.78;69.54
85473;BME280;75874;41.386;22.136;2024-03-06T08:14:12;95748.13;;;12.84;71.53
85473;BME280;75874;41.386;22.136;2024-03-06T08:16:40;95745.50;;;12.94;70.93
85473;BME280;75874;41.386;22.136;2024-03-06T08:19:06;95755.19;;;13.05;70.70
85473;BME280;75874;41.386;22.136;2024-03-06T08:21:31;95750.91;;;13.09;72.97
85473;BME280;75874;41.386;22.136;2024-03-06T08:23:57;95748.81;;;13.31;70.34
85473;BME280;75874;41.386;22.136;2024-03-06T08:26:23;95743.75;;;13.40;71.01
85473;BME280;75874;41.386;22.136;2024-03-06T08:28:48;95743.50;;;13.41;71.04
85473;BME280;75874;41.386;22.136;2024-03-06T08:31:14;95745.63;;;13.49;68.72
85473;BME280;75874;41.386;22.136;2024-03-06T08:33:40;95742.94;;;13.54;70.83
85473;BME280;75874;41.386;22.136;2024-03-06T08:36:06;95733.56;;;13.47;70.48
85473;BME280;75874;41.386;22.136;2024-03-06T08:38:31;95736.53;;;13.50;68.62
85473;BME280;75874;41.386;22.136;2024-03-06T08:40:57;95749.13;;;13.55;69.30
85473;BME280;75874;41.386;22.136;2024-03-06T08:43:23;95741.34;;;13.53;67.38
85473;BME280;75874;41.386;22.136;2024-03-06T08:45:48;95756.09;;;13.66;70.48
85473;BME280;75874;41.386;22.136;2024-03-06T08:48:14;95748.06;;;13.61;70.38
85473;BME280;75874;41.386;22.136;2024-03-06T08:50:39;95755.84;;;13.72;68.73
85473;BME280;75874;41.386;22.136;2024-03-06T08:53:05;95759.06;;;13.94;71.15
85473;BME280;75874;41.386;22.136;2024-03-06T08:55:30;95754.50;;;14.05;67.82
85473;BME280;75874;41.386;22.136;2024-03-06T08:57:56;95754.22;;;14.12;68.18
85473;BME280;75874;41.386;22.136;2024-03-06T09:00:22;95752.63;;;14.26;67.69
85473;BME280;75874;41.386;22.136;2024-03-06T09:02:47;95751.00;;;14.15;66.08
85473;BME280;75874;41.386;22.136;2024-03-06T09:05:13;95756.34;;;14.20;68.78
85473;BME280;75874;41.386;22.136;2024-03-06T09:07:39;95748.31;;;14.30;66.59
85473;BME280;75874;41.386;22.136;2024-03-06T09:10:09;95755.25;;;14.41;68.33
85473;BME280;75874;41.386;22.136;2024-03-06T09:12:36;95758.47;;;14.43;67.78
85473;BME280;75874;41.386;22.136;2024-03-06T09:15:03;95761.66;;;14.60;67.39
85473;BME280;75874;41.386;22.136;2024-03-06T09:17:29;95749.03;;;14.65;65.35
85473;BME280;75874;41.386;22.136;2024-03-06T09:19:55;95756.75;;;14.77;67.91
85473;BME280;75874;41.386;22.136;2024-03-06T09:22:21;95763.91;;;15.06;65.96
85473;BME280;75874;41.386;22.136;2024-03-06T09:24:47;95756.59;;;15.17;65.97
85473;BME280;75874;41.386;22.136;2024-03-06T09:27:14;95756.19;;;14.95;64.13
85473;BME280;75874;41.386;22.136;2024-03-06T09:29:40;95728.75;;;15.03;65.50
85473;BME280;75874;41.386;22.136;2024-03-06T09:32:06;95745.00;;;15.26;63.42
85473;BME280;75874;41.386;22.136;2024-03-06T09:34:31;95750.84;;;15.43;65.41
85473;BME280;75874;41.386;22.136;2024-03-06T09:36:57;95746.03;;;15.40;62.18
85473;BME280;75874;41.386;22.136;2024-03-06T09:39:23;95746.19;;;15.54;60.87
85473;BME280;75874;41.386;22.136;2024-03-06T09:41:53;95739.63;;;15.70;60.95
85473;BME280;75874;41.386;22.136;2024-03-06T09:44:20;95747.50;;;15.95;61.46
85473;BME280;75874;41.386;22.136;2024-03-06T09:46:48;95755.97;;;16.12;58.13
85473;BME280;75874;41.386;22.136;2024-03-06T09:49:16;95719.94;;;15.80;55.78
85473;BME280;75874;41.386;22.136;2024-03-06T09:51:47;95744.50;;;16.02;59.14
85473;BME280;75874;41.386;22.136;2024-03-06T09:54:14;95749.69;;;16.22;59.24
85473;BME280;75874;41.386;22.136;2024-03-06T09:56:44;95751.97;;;16.38;57.14
85473;BME280;75874;41.386;22.136;2024-03-06T09:59:11;95749.59;;;16.60;55.73
85473;BME280;75874;41.386;22.136;2024-03-06T10:01:41;95749.38;;;17.04;55.57
85473;BME280;75874;41.386;22.136;2024-03-06T10:04:26;95747.53;;;17.42;56.18
85473;BME280;75874;41.386;22.136;2024-03-06T10:06:57;95742.50;;;17.72;54.66
85473;BME280;75874;41.386;22.136;2024-03-06T10:09:24;95739.22;;;17.94;46.11
85473;BME280;75874;41.386;22.136;2024-03-06T10:15:30;95741.13;;;20.71;44.03
85473;BME280;75874;41.386;22.136;2024-03-06T10:18:15;95740.53;;;23.80;39.00
85473;BME280;75874;41.386;22.136;2024-03-06T10:20:43;95748.75;;;25.82;35.51
85473;BME280;75874;41.386;22.136;2024-03-06T10:23:09;95741.91;;;27.61;30.89
85473;BME280;75874;41.386;22.136;2024-03-06T10:25:35;95750.13;;;29.33;28.93
85473;BME280;75874;41.386;22.136;2024-03-06T10:28:11;95758.78;;;31.02;26.72
85473;BME280;75874;41.386;22.136;2024-03-06T10:30:38;95745.84;;;32.00;23.88
85473;BME280;75874;41.386;22.136;2024-03-06T10:33:07;95746.09;;;32.39;22.37
85473;BME280;75874;41.386;22.136;2024-03-06T10:35:42;95750.31;;;32.22;23.61
85473;BME280;75874;41.386;22.136;2024-03-06T10:38:09;95754.69;;;33.86;21.81
85473;BME280;75874;41.386;22.136;2024-03-06T10:40:41;95758.56;;;35.31;21.29
85473;BME280;75874;41.386;22.136;2024-03-06T10:43:08;95748.25;;;34.53;21.22
85473;BME280;75874;41.386;22.136;2024-03-06T10:45:51;95750.22;;;36.27;19.07
85473;BME280;75874;41.386;22.136;2024-03-06T10:48:19;95755.97;;;37.40;19.01
85473;BME280;75874;41.386;22.136;2024-03-06T10:50:46;95750.44;;;37.86;17.75
85473;BME280;75874;41.386;22.136;2024-03-06T10:53:14;95755.75;;;37.54;18.12
85473;BME280;75874;41.386;22.136;2024-03-06T10:55:43;95752.91;;;38.04;17.28
85473;BME280;75874;41.386;22.136;2024-03-06T10:58:12;95738.63;;;36.35;17.93
85473;BME280;75874;41.386;22.136;2024-03-06T11:00:40;95738.78;;;32.92;20.23
85473;BME280;75874;41.386;22.136;2024-03-06T11:03:08;95729.53;;;31.81;22.04
85473;BME280;75874;41.386;22.136;2024-03-06T11:05:35;95730.47;;;35.19;18.23
85473;BME280;75874;41.386;22.136;2024-03-06T11:08:02;95728.38;;;35.88;18.46
85473;BME280;75874;41.386;22.136;2024-03-06T11:10:33;95736.69;;;36.96;19.23
85473;BME280;75874;41.386;22.136;2024-03-06T11:13:21;95729.81;;;37.34;17.17
85473;BME280;75874;41.386;22.136;2024-03-06T11:15:50;95728.31;;;38.64;16.11
85473;BME280;75874;41.386;22.136;2024-03-06T11:24:12;95714.84;;;38.95;16.41
85473;BME280;75874;41.386;22.136;2024-03-06T11:26:54;95717.78;;;39.59;15.97
85473;BME280;75874;41.386;22.136;2024-03-06T11:29:22;95715.25;;;41.24;13.24
85473;BME280;75874;41.386;22.136;2024-03-06T11:32:07;95703.63;;;39.82;13.89
85473;BME280;75874;41.386;22.136;2024-03-06T11:34:34;95695.38;;;39.11;13.02
85473;BME280;75874;41.386;22.136;2024-03-06T11:37:04;95693.16;;;39.86;13.83
85473;BME280;75874;41.386;22.136;2024-03-06T11:39:33;95691.75;;;40.80;14.12
85473;BME280;75874;41.386;22.136;2024-03-06T11:41:59;95684.00;;;39.54;13.18
85473;BME280;75874;41.386;22.136;2024-03-06T11:44:27;95685.00;;;38.56;14.61
85473;BME280;75874;41.386;22.136;2024-03-06T11:46:58;95681.59;;;39.36;13.04
85473;BME280;75874;41.386;22.136;2024-03-06T11:49:29;95677.50;;;39.89;14.48
85473;BME280;75874;41.386;22.136;2024-03-06T11:52:03;95681.59;;;41.74;12.52
85473;BME280;75874;41.386;22.136;2024-03-06T11:54:32;95666.34;;;41.63;13.78
85473;BME280;75874;41.386;22.136;2024-03-06T11:57:00;95679.09;;;42.88;12.32
85473;BME280;75874;41.386;22.136;2024-03-06T11:59:33;95669.06;;;43.08;13.15
85473;BME280;75874;41.386;22.136;2024-03-06T12:02:00;95662.44;;;43.24;11.70
85473;BME280;75874;41.386;22.136;2024-03-06T12:04:33;95662.88;;;43.53;11.21
85473;BME280;75874;41.386;22.136;2024-03-06T12:07:02;95656.59;;;44.34;11.69
85473;BME280;75874;41.386;22.136;2024-03-06T12:09:33;95660.94;;;44.16;11.57
85473;BME280;75874;41.386;22.136;2024-03-06T12:11:59;95649.53;;;44.11;11.40
85473;BME280;75874;41.386;22.136;2024-03-06T12:14:25;95654.53;;;44.07;11.07
85473;BME280;75874;41.386;22.136;2024-03-06T12:17:15;95651.88;;;44.49;10.43
85473;BME280;75874;41.386;22.136;2024-03-06T12:19:42;95655.56;;;45.41;11.59
85473;BME280;75874;41.386;22.136;2024-03-06T12:22:12;95642.00;;;44.26;11.67
85473;BME280;75874;41.386;22.136;2024-03-06T12:24:38;95639.06;;;44.48;11.19
85473;BME280;75874;41.386;22.136;2024-03-06T12:27:06;95642.94;;;44.68;9.69
85473;BME280;75874;41.386;22.136;2024-03-06T12:29:33;95636.03;;;45.85;10.16
85473;BME280;75874;41.386;22.136;2024-03-06T12:32:03;95639.66;;;45.20;10.62
85473;BME280;75874;41.386;22.136;2024-03-06T12:34:28;95630.13;;;44.40;11.51
85473;BME280;75874;41.386;22.136;2024-03-06T12:36:55;95630.53;;;44.75;9.96
85473;BME280;75874;41.386;22.136;2024-03-06T12:39:23;95625.66;;;44.93;10.49
85473;BME280;75874;41.386;22.136;2024-03-06T12:41:50;95618.22;;;44.45;10.35
85473;BME280;75874;41.386;22.136;2024-03-06T12:44:16;95624.31;;;43.71;11.12
85473;BME280;75874;41.386;22.136;2024-03-06T12:46:42;95621.00;;;43.73;10.79
85473;BME280;75874;41.386;22.136;2024-03-06T12:49:07;95623.13;;;44.95;10.67
85473;BME280;75874;41.386;22.136;2024-03-06T12:51:33;95619.63;;;44.59;10.01
85473;BME280;75874;41.386;22.136;2024-03-06T12:53:59;95614.00;;;42.58;10.36
85473;BME280;75874;41.386;22.136;2024-03-06T12:56:26;95604.06;;;41.68;12.23
85473;BME280;75874;41.386;22.136;2024-03-06T12:58:52;95597.44;;;39.02;12.10
85473;BME280;75874;41.386;22.136;2024-03-06T13:01:18;95595.34;;;38.35;14.54
85473;BME280;75874;41.386;22.136;2024-03-06T13:03:43;95598.75;;;41.23;12.48
85473;BME280;75874;41.386;22.136;2024-03-06T13:06:09;95599.03;;;41.63;12.07
85473;BME280;75874;41.386;22.136;2024-03-06T13:08:35;95596.66;;;40.77;12.21
85473;BME280;75874;41.386;22.136;2024-03-06T13:11:01;95598.09;;;42.64;11.30